createdAt,value
2018-10-02T00:00:55.381Z,93.50
2018-10-02T00:05:51.978Z,93.80
2018-10-02T00:08:20.477Z,93.80
2018-10-02T00:10:54.297Z,93.60
2018-10-02T00:13:28.096Z,93.70
2018-10-02T00:15:56.556Z,93.80
2018-10-02T00:18:24.992Z,93.70
2018-10-02T00:20:53.464Z,93.80
2018-10-02T00:23:21.952Z,94.00
2018-10-02T00:25:50.375Z,93.90
2018-10-02T00:28:18.845Z,94.00
2018-10-02T00:30:47.265Z,94.00
2018-10-02T00:35:43.992Z,93.60
2018-10-02T00:38:12.418Z,93.70
2018-10-02T00:40:40.821Z,93.60
2018-10-02T00:43:09.265Z,93.80
2018-10-02T00:45:37.677Z,93.80
2018-10-02T00:48:05.760Z,93.60
2018-10-02T00:50:34.165Z,93.90
2018-10-02T00:53:02.681Z,93.90
2018-10-02T00:55:31.107Z,93.80
2018-10-02T01:00:27.682Z,93.80
2018-10-02T01:05:24.255Z,93.90
2018-10-02T01:07:52.707Z,93.80
2018-10-02T01:10:21.121Z,93.90
2018-10-02T01:12:49.568Z,93.90
2018-10-02T01:15:18.043Z,94.10
2018-10-02T01:17:46.457Z,94.00
2018-10-02T01:20:14.976Z,94.10
2018-10-02T01:22:43.387Z,94.20
2018-10-02T01:25:11.869Z,94.20
2018-10-02T01:30:08.527Z,94.10
2018-10-02T01:32:37.211Z,94.20
2018-10-02T01:35:05.835Z,94.00
2018-10-02T01:37:34.249Z,94.10
2018-10-02T01:42:30.829Z,94.40
2018-10-02T01:44:59.309Z,94.30
2018-10-02T01:47:27.726Z,94.20
2018-10-02T01:49:56.190Z,94.20
2018-10-02T01:52:24.614Z,94.00
2018-10-02T01:54:53.080Z,93.90
2018-10-02T01:57:21.518Z,93.90
2018-10-02T01:59:50.178Z,94.00
2018-10-02T02:07:14.916Z,93.90
2018-10-02T02:09:43.417Z,93.90
2018-10-02T02:12:11.808Z,94.00
2018-10-02T02:14:40.561Z,94.00
2018-10-02T02:17:09.115Z,93.90
2018-10-02T02:19:37.681Z,94.00
2018-10-02T02:22:07.393Z,93.70
2018-10-02T02:24:35.816Z,93.80
2018-10-02T02:27:04.256Z,94.00
2018-10-02T02:29:32.680Z,94.00
2018-10-02T02:32:01.256Z,94.00
2018-10-02T02:34:29.709Z,93.80
2018-10-02T02:36:58.585Z,93.80
2018-10-02T02:41:55.189Z,92.80
2018-10-02T02:44:23.689Z,92.90
2018-10-02T02:46:52.117Z,93.00
2018-10-02T02:49:25.924Z,93.10
2018-10-02T02:51:54.740Z,92.50
2018-10-02T02:56:51.593Z,92.60
2018-10-02T02:59:20.044Z,92.70
2018-10-02T03:01:48.727Z,92.20
2018-10-02T03:06:45.401Z,92.00
2018-10-02T03:14:11.075Z,91.60
2018-10-02T03:16:39.675Z,91.80
2018-10-02T03:19:08.152Z,91.90
2018-10-02T03:24:04.731Z,92.10
2018-10-02T03:26:33.171Z,92.30
2018-10-02T03:29:01.593Z,92.60
2018-10-02T03:31:30.023Z,92.60
2018-10-02T03:33:58.422Z,92.70
2018-10-02T03:36:26.849Z,92.80
2018-10-02T03:38:55.240Z,92.80
2018-10-02T03:41:23.678Z,92.80
2018-10-02T03:43:52.769Z,92.90
2018-10-02T03:46:21.250Z,93.00
2018-10-02T03:48:49.728Z,92.90
2018-10-02T03:51:18.123Z,92.80
2018-10-02T03:53:46.513Z,92.80
2018-10-02T04:01:11.849Z,93.00
2018-10-02T04:03:40.333Z,92.90
2018-10-02T04:06:09.278Z,93.00
2018-10-02T04:08:37.673Z,93.20
2018-10-02T04:11:06.457Z,93.30
2018-10-02T04:13:34.914Z,93.20
2018-10-02T04:16:03.473Z,93.20
2018-10-02T04:18:31.884Z,93.30
2018-10-02T04:21:00.533Z,93.30
2018-10-02T04:23:28.927Z,93.30
2018-10-02T04:25:57.397Z,93.00
2018-10-02T04:28:25.884Z,93.00
2018-10-02T04:30:54.244Z,93.00
2018-10-02T04:33:22.709Z,93.40
2018-10-02T04:35:51.144Z,93.50
2018-10-02T04:38:20.203Z,93.50
2018-10-02T04:40:48.625Z,93.60
2018-10-02T04:43:17.020Z,93.50
2018-10-02T04:45:45.450Z,93.40
2018-10-02T04:48:13.836Z,93.40
2018-10-02T04:50:42.228Z,93.30
2018-10-02T04:53:10.681Z,93.30
2018-10-02T04:55:39.096Z,93.50
2018-10-02T04:58:07.525Z,93.60
2018-10-02T05:00:35.937Z,93.50
2018-10-02T05:03:04.428Z,93.60
2018-10-02T05:05:32.837Z,93.50
2018-10-02T05:08:01.258Z,93.60
2018-10-02T05:10:29.726Z,93.60
2018-10-02T05:12:58.180Z,93.80
2018-10-02T05:15:26.690Z,93.40
2018-10-02T05:17:55.205Z,93.20
2018-10-02T05:20:23.641Z,93.20
2018-10-02T05:22:52.314Z,93.40
2018-10-02T05:25:20.736Z,93.10
2018-10-02T05:30:17.310Z,93.10
2018-10-02T05:32:45.768Z,93.20
2018-10-02T05:35:14.580Z,92.90
2018-10-02T05:37:43.081Z,93.10
2018-10-02T05:40:11.507Z,93.00
2018-10-02T05:42:40.185Z,93.00
2018-10-02T05:45:09.129Z,93.00
2018-10-02T05:47:37.558Z,93.00
2018-10-02T05:50:06.126Z,93.20
2018-10-02T05:52:34.674Z,93.10
2018-10-02T05:55:04.817Z,92.90
2018-10-02T05:57:34.197Z,93.00
2018-10-02T06:00:02.785Z,92.90
2018-10-02T06:02:32.205Z,93.00
2018-10-02T06:05:00.806Z,93.00
2018-10-02T06:09:58.009Z,92.90
2018-10-02T06:12:26.912Z,92.80
2018-10-02T06:14:55.325Z,92.60
2018-10-02T06:17:23.793Z,92.70
2018-10-02T06:19:52.196Z,92.60
2018-10-02T06:22:20.642Z,92.40
2018-10-02T06:24:49.169Z,92.60
2018-10-02T06:27:17.605Z,91.70
2018-10-02T06:32:14.389Z,91.80
2018-10-02T06:34:42.874Z,91.60
2018-10-02T06:37:11.281Z,91.40
2018-10-02T06:39:39.753Z,91.40
2018-10-02T06:42:08.148Z,91.20
2018-10-02T06:44:36.639Z,91.60
2018-10-02T06:47:05.147Z,91.70
2018-10-02T06:49:33.824Z,91.50
2018-10-02T06:54:30.449Z,91.00
2018-10-02T06:56:58.898Z,91.20
2018-10-02T06:59:27.477Z,91.10
2018-10-02T07:01:55.871Z,90.70
2018-10-02T07:04:24.336Z,90.60
2018-10-02T07:06:52.914Z,89.50
2018-10-02T07:11:49.577Z,88.40
2018-10-02T07:16:46.249Z,88.40
2018-10-02T07:24:12.047Z,87.60
2018-10-02T07:26:40.820Z,87.40
2018-10-02T07:31:37.753Z,87.10
2018-10-02T07:34:06.217Z,86.60
2018-10-02T07:36:34.650Z,86.50
2018-10-02T07:39:04.093Z,86.90
2018-10-02T07:41:32.712Z,85.60
2018-10-02T07:44:01.225Z,84.60
2018-10-02T07:46:29.844Z,84.00
2018-10-02T07:48:58.335Z,84.10
2018-10-02T07:53:54.946Z,85.60
2018-10-02T07:56:23.394Z,86.20
2018-10-02T07:58:51.821Z,86.70
2018-10-02T08:03:48.445Z,86.90
2018-10-02T08:06:17.025Z,87.10
2018-10-02T08:08:45.530Z,87.00
2018-10-02T08:13:42.081Z,87.00
2018-10-02T08:16:10.564Z,87.30
2018-10-02T08:18:39.077Z,86.30
2018-10-02T08:21:07.598Z,86.10
2018-10-02T08:23:35.985Z,84.80
2018-10-02T08:26:04.539Z,83.40
2018-10-02T08:28:32.977Z,83.10
2018-10-02T08:31:01.508Z,82.90
2018-10-02T08:33:29.892Z,81.80
2018-10-02T08:35:58.537Z,80.60
2018-10-02T08:38:26.914Z,79.20
2018-10-02T08:40:55.340Z,78.00
2018-10-02T08:43:23.785Z,75.90
2018-10-02T08:45:52.181Z,74.20
2018-10-02T08:48:20.581Z,73.70
2018-10-02T08:50:49.067Z,72.70
2018-10-02T08:53:17.422Z,70.90
2018-10-02T08:55:45.921Z,70.90
2018-10-02T08:58:14.353Z,68.80
2018-10-02T09:00:42.843Z,69.00
2018-10-02T09:03:11.320Z,69.00
2018-10-02T09:05:40.060Z,71.30
2018-10-02T09:08:08.618Z,71.60
2018-10-02T09:10:37.109Z,73.10
2018-10-02T09:13:05.869Z,72.10
2018-10-02T09:18:02.564Z,73.40
2018-10-02T09:22:59.222Z,71.00
2018-10-02T09:25:27.690Z,69.20
2018-10-02T09:27:56.286Z,67.70
2018-10-02T09:30:30.580Z,66.90
2018-10-02T09:33:04.488Z,64.10
2018-10-02T09:36:39.596Z,61.80
2018-10-02T09:39:14.600Z,58.90
2018-10-02T09:44:16.411Z,57.00
2018-10-02T09:46:44.901Z,57.60
2018-10-02T09:51:41.556Z,59.40
2018-10-02T09:54:10.178Z,61.20
2018-10-02T09:56:43.920Z,61.30
2018-10-02T10:01:47.664Z,66.30
2018-10-02T10:04:16.517Z,70.10
2018-10-02T10:11:42.318Z,64.10
2018-10-02T10:14:10.910Z,63.70
2018-10-02T10:16:40.030Z,62.00
2018-10-02T10:19:08.352Z,60.60
2018-10-02T10:21:37.093Z,60.50
2018-10-02T10:24:05.561Z,61.30
2018-10-02T10:29:02.191Z,61.20
2018-10-02T10:33:59.189Z,63.00
2018-10-02T10:36:27.639Z,61.20
2018-10-02T10:38:56.132Z,60.10
2018-10-02T10:41:24.609Z,60.10
2018-10-02T10:43:53.029Z,60.00
2018-10-02T10:46:21.520Z,58.50
2018-10-02T10:48:49.939Z,57.90
2018-10-02T10:51:18.621Z,58.50
2018-10-02T10:53:47.083Z,61.20
2018-10-02T10:56:15.576Z,62.90
2018-10-02T11:01:12.191Z,65.50
2018-10-02T11:03:40.617Z,67.00
2018-10-02T11:06:09.118Z,68.00
2018-10-02T11:08:37.637Z,66.50
2018-10-02T11:13:34.169Z,68.50
2018-10-02T11:16:02.601Z,68.80
2018-10-02T11:18:31.089Z,69.00
2018-10-02T11:20:59.582Z,69.50
2018-10-02T11:23:28.009Z,69.40
2018-10-02T11:28:24.635Z,69.20
2018-10-02T11:30:53.229Z,68.70
2018-10-02T11:33:21.684Z,67.70
2018-10-02T11:38:18.302Z,66.80
2018-10-02T11:40:46.780Z,67.40
2018-10-02T11:43:15.323Z,68.00
2018-10-02T11:45:43.766Z,68.10
2018-10-02T11:48:12.196Z,68.90
2018-10-02T11:50:40.647Z,68.30
2018-10-02T11:53:09.213Z,68.60
2018-10-02T11:55:37.722Z,69.50
2018-10-02T11:58:06.226Z,68.90
2018-10-02T12:00:35.005Z,68.80
2018-10-02T12:03:03.334Z,68.80
2018-10-02T12:05:31.870Z,68.70
2018-10-02T12:08:00.325Z,69.10
2018-10-02T12:10:28.773Z,70.00
2018-10-02T12:12:57.285Z,70.00
2018-10-02T12:15:25.714Z,70.20
2018-10-02T12:17:54.206Z,69.80
2018-10-02T12:20:22.605Z,69.40
2018-10-02T12:25:19.206Z,69.50
2018-10-02T12:27:47.630Z,70.20
2018-10-02T12:30:16.057Z,70.30
2018-10-02T12:35:12.725Z,70.80
2018-10-02T12:40:09.312Z,70.50
2018-10-02T12:42:37.974Z,69.80
2018-10-02T12:45:06.524Z,70.00
2018-10-02T12:47:35.033Z,70.80
2018-10-02T12:54:49.143Z,69.70
2018-10-02T12:57:17.595Z,69.60
2018-10-02T12:59:46.046Z,70.30
2018-10-02T13:02:14.498Z,70.20
2018-10-02T13:07:11.205Z,69.10
2018-10-02T13:12:07.785Z,69.70
2018-10-02T13:14:36.345Z,69.70
2018-10-02T13:17:04.796Z,69.50
2018-10-02T13:24:29.933Z,69.40
2018-10-02T13:26:58.360Z,70.00
2018-10-02T13:29:26.845Z,69.60
2018-10-02T13:31:55.283Z,69.90
2018-10-02T13:34:23.860Z,70.00
2018-10-02T13:36:52.301Z,70.50
2018-10-02T13:39:21.553Z,70.50
2018-10-02T13:41:49.984Z,70.60
2018-10-02T13:44:39.503Z,70.60
2018-10-02T13:50:41.041Z,70.80
2018-10-02T13:53:09.483Z,70.50
2018-10-02T13:55:38.010Z,70.50
2018-10-02T13:58:06.446Z,70.90
2018-10-02T14:00:34.961Z,70.60
2018-10-02T14:06:41.625Z,70.10
2018-10-02T14:09:10.188Z,69.90
2018-10-02T14:11:38.638Z,71.20
2018-10-02T14:16:36.349Z,71.40
2018-10-02T14:19:05.444Z,71.20
2018-10-02T14:21:33.909Z,72.00
2018-10-02T14:24:02.393Z,71.80
2018-10-02T14:26:30.828Z,71.30
2018-10-02T14:28:59.901Z,71.70
2018-10-02T14:31:28.367Z,71.90
2018-10-02T14:37:21.822Z,71.90
2018-10-02T14:39:50.702Z,71.20
2018-10-02T14:42:19.118Z,71.50
2018-10-02T14:44:47.580Z,72.00
2018-10-02T14:47:16.041Z,71.90
2018-10-02T14:49:44.830Z,72.00
2018-10-02T14:52:13.245Z,71.90
2018-10-02T14:54:41.943Z,72.40
2018-10-02T14:57:10.552Z,71.90
2018-10-02T14:59:39.012Z,71.60
2018-10-02T15:02:07.974Z,72.00
2018-10-02T15:04:36.453Z,72.30
2018-10-02T15:07:05.069Z,72.60
2018-10-02T15:09:33.548Z,72.30
2018-10-02T15:12:02.221Z,72.30
2018-10-02T15:14:30.645Z,72.30
2018-10-02T15:16:59.462Z,72.40
2018-10-02T15:19:27.957Z,72.70
2018-10-02T15:21:57.045Z,72.10
2018-10-02T15:24:25.465Z,72.70
2018-10-02T15:26:53.921Z,72.50
2018-10-02T15:29:22.317Z,73.30
2018-10-02T15:31:51.822Z,73.20
2018-10-02T15:34:21.438Z,73.20
2018-10-02T15:39:18.268Z,72.80
2018-10-02T15:41:47.000Z,73.40
2018-10-02T15:44:15.455Z,73.70
2018-10-02T15:46:44.069Z,73.90
2018-10-02T15:49:12.510Z,74.20
2018-10-02T15:51:41.093Z,74.60
2018-10-02T15:54:10.293Z,75.10
2018-10-02T15:59:07.005Z,74.50
2018-10-02T16:01:35.465Z,74.50
2018-10-02T16:06:32.037Z,74.30
2018-10-02T16:09:00.473Z,74.30
2018-10-02T16:11:28.980Z,74.80
2018-10-02T16:13:57.418Z,74.80
2018-10-02T16:16:25.925Z,74.50
2018-10-02T16:21:22.501Z,75.30
2018-10-02T16:23:50.950Z,75.50
2018-10-02T16:26:19.395Z,75.90
2018-10-02T16:28:47.856Z,75.90
2018-10-02T16:31:16.297Z,75.40
2018-10-02T16:33:44.908Z,75.80
2018-10-02T16:36:13.398Z,75.60
2018-10-02T16:38:41.829Z,75.60
2018-10-02T16:41:10.279Z,75.80
2018-10-02T16:43:38.689Z,76.20
2018-10-02T16:46:07.193Z,76.20
2018-10-02T16:48:35.621Z,76.50
2018-10-02T16:51:04.082Z,76.50
2018-10-02T16:53:32.527Z,76.60
2018-10-02T16:56:00.985Z,77.00
2018-10-02T16:58:29.408Z,77.00
2018-10-02T17:00:57.876Z,76.90
2018-10-02T17:03:26.327Z,76.80
2018-10-02T17:05:54.777Z,77.10
2018-10-02T17:08:23.190Z,77.20
2018-10-02T17:13:19.918Z,77.10
2018-10-02T17:15:49.343Z,77.40
2018-10-02T17:20:46.553Z,77.60
2018-10-02T17:23:14.980Z,78.10
2018-10-02T17:25:43.369Z,78.20
2018-10-02T17:28:11.815Z,78.10
2018-10-02T17:30:40.277Z,78.30
2018-10-02T17:33:08.769Z,78.20
2018-10-02T17:35:37.197Z,78.30
2018-10-02T17:38:05.689Z,78.30
2018-10-02T17:40:34.169Z,78.20
2018-10-02T17:43:02.749Z,78.50
2018-10-02T17:45:31.189Z,78.20
2018-10-02T17:47:59.648Z,78.50
2018-10-02T17:50:28.052Z,78.60
2018-10-02T17:55:24.595Z,78.50
2018-10-02T17:57:53.073Z,78.70
2018-10-02T18:00:21.487Z,78.50
2018-10-02T18:02:50.101Z,78.90
2018-10-02T18:05:18.637Z,78.60
2018-10-02T18:07:47.073Z,79.00
2018-10-02T18:10:15.515Z,78.90
2018-10-02T18:12:43.969Z,78.90
2018-10-02T18:15:12.397Z,78.90
2018-10-02T18:17:40.889Z,78.80
2018-10-02T18:20:09.462Z,78.80
2018-10-02T18:22:37.905Z,79.00
2018-10-02T18:25:06.581Z,78.80
2018-10-02T18:27:35.137Z,78.90
2018-10-02T18:30:03.502Z,78.90
2018-10-02T18:32:31.966Z,78.90
2018-10-02T18:35:00.429Z,78.90
2018-10-02T18:37:28.873Z,78.90
2018-10-02T18:39:57.293Z,78.80
2018-10-02T18:42:25.760Z,78.90
2018-10-02T18:44:54.217Z,78.80
2018-10-02T18:47:22.665Z,78.90
2018-10-02T18:49:51.087Z,78.70
2018-10-02T18:52:19.523Z,78.70
2018-10-02T18:57:16.213Z,78.30
2018-10-02T18:59:44.688Z,78.20
2018-10-02T19:02:13.173Z,78.20
2018-10-02T19:04:41.593Z,78.10
2018-10-02T19:07:10.344Z,77.80
2018-10-02T19:09:38.808Z,78.20
2018-10-02T19:12:13.327Z,78.10
2018-10-02T19:14:41.824Z,77.60
2018-10-02T19:17:10.639Z,78.10
2018-10-02T19:22:13.089Z,78.20
2018-10-02T19:24:42.281Z,78.00
2018-10-02T19:27:10.820Z,78.30
2018-10-02T19:29:40.352Z,78.40
2018-10-02T19:32:12.384Z,78.60
2018-10-02T19:34:41.108Z,78.70
2018-10-02T19:37:15.049Z,78.70
2018-10-02T19:39:43.788Z,79.00
2018-10-02T19:42:12.640Z,78.80
2018-10-02T19:44:41.081Z,78.80
2018-10-02T19:47:09.615Z,79.00
2018-10-02T19:49:38.028Z,78.80
2018-10-02T19:52:12.474Z,79.40
2018-10-02T19:54:41.082Z,79.40
2018-10-02T19:57:11.161Z,79.50
2018-10-02T19:59:39.635Z,79.60
2018-10-02T20:02:08.177Z,79.90
2018-10-02T20:04:37.035Z,79.80
2018-10-02T20:07:05.826Z,80.10
2018-10-02T20:09:34.266Z,80.80
2018-10-02T20:12:02.700Z,80.30
2018-10-02T20:14:31.156Z,80.40
2018-10-02T20:16:59.591Z,80.60
2018-10-02T20:19:28.416Z,81.00
2018-10-02T20:21:56.982Z,81.00
2018-10-02T20:24:25.464Z,81.30
2018-10-02T20:26:53.877Z,81.30
2018-10-02T20:29:22.517Z,81.40
2018-10-02T20:34:20.253Z,81.50
2018-10-02T20:40:07.979Z,81.90
2018-10-02T20:42:36.389Z,82.10
2018-10-02T20:45:04.876Z,82.10
2018-10-02T20:50:01.402Z,82.30
2018-10-02T20:52:29.801Z,82.30
2018-10-02T20:59:54.521Z,82.10
2018-10-02T21:04:51.049Z,81.90
2018-10-02T21:07:19.532Z,82.10
2018-10-02T21:09:47.961Z,81.90
2018-10-02T21:12:16.393Z,82.10
2018-10-02T21:14:44.818Z,82.30
2018-10-02T21:19:41.436Z,82.60
2018-10-02T21:22:09.881Z,82.70
2018-10-02T21:24:38.305Z,82.70
2018-10-02T21:27:06.752Z,82.60
2018-10-02T21:29:35.180Z,82.50
2018-10-02T21:32:03.593Z,82.50
2018-10-02T21:37:00.426Z,82.50
2018-10-02T21:41:57.126Z,82.70
2018-10-02T21:44:25.611Z,82.90
2018-10-02T21:46:54.049Z,83.10
2018-10-02T21:49:22.451Z,83.20
2018-10-02T21:51:51.082Z,83.70
2018-10-02T21:54:19.569Z,83.70
2018-10-02T21:59:17.645Z,84.30
2018-10-02T22:04:14.385Z,84.80
2018-10-02T22:06:42.808Z,84.90
2018-10-02T22:09:11.400Z,85.40
2018-10-02T22:11:40.295Z,85.40
2018-10-02T22:14:08.728Z,85.60
2018-10-02T22:16:37.274Z,85.90
2018-10-02T22:24:01.992Z,86.10
2018-10-02T22:26:30.417Z,86.20
2018-10-02T22:28:58.853Z,86.10
2018-10-02T22:31:27.280Z,86.20
2018-10-02T22:33:55.704Z,86.20
2018-10-02T22:36:24.170Z,86.20
2018-10-02T22:38:52.569Z,86.50
2018-10-02T22:41:21.113Z,86.50
2018-10-02T22:46:17.669Z,86.20
2018-10-02T22:48:46.099Z,86.20
2018-10-02T22:51:14.511Z,86.10
2018-10-02T22:53:42.961Z,86.00
2018-10-02T22:56:11.393Z,86.10
2018-10-02T22:58:39.785Z,85.90
2018-10-02T23:01:08.273Z,85.90
2018-10-02T23:03:36.669Z,85.80
2018-10-02T23:06:05.113Z,85.70
2018-10-02T23:08:33.564Z,85.80
2018-10-02T23:11:01.998Z,85.90
2018-10-02T23:13:30.398Z,85.90
2018-10-02T23:15:58.857Z,85.70
2018-10-02T23:18:27.311Z,85.70
2018-10-02T23:20:55.797Z,85.60
2018-10-02T23:23:24.181Z,85.40
2018-10-02T23:25:52.645Z,85.50
2018-10-02T23:28:21.089Z,85.50
2018-10-02T23:30:49.513Z,85.60
2018-10-02T23:33:17.944Z,85.50
2018-10-02T23:35:46.365Z,85.40
2018-10-02T23:38:14.856Z,85.60
2018-10-02T23:43:11.858Z,85.70
2018-10-02T23:45:41.094Z,85.60
2018-10-02T23:48:09.529Z,85.50
2018-10-02T23:50:37.951Z,85.70
2018-10-02T23:53:06.390Z,85.60
2018-10-02T23:55:34.788Z,85.70
